Time;durP1;ratioP1;P1;durP2;ratioP2;P2;SDS_P1;SDS_P2;PMS_P1;PMS_P2;Temp;Humidity;BMP_temperature;BMP_pressure;BME280_temperature;BME280_humidity;BME280_pressure;Samples;Min_cycle;Max_cycle;Signal;HPM_P1;HPM_P2
2023/07/23 07:09:48;;;;;;;;;;;22.80;79.80;;;;;;6570532;19;5802250;-74
2023/07/23 07:12:17;;;;;;;;;;;23.00;79.70;;;;;;7382269;19;19907;-74
2023/07/23 07:14:51;;;;;;;;;;;22.90;79.60;;;;;;7380464;19;19910;-75
2023/07/23 07:17:29;;;;;;;;;;;23.10;79.40;;;;;;7378076;19;19911;-73
2023/07/23 07:20:02;;;;;;;;;;;23.10;78.80;;;;;;7400698;19;19911;-77
2023/07/23 07:52:54;;;;;;;;;;;23.70;77.20;;;;;;7380757;19;19917;-76
2023/07/23 08:14:53;;;;;;;;;;;24.00;76.60;;;;;;7415734;19;19987;-76
2023/07/23 08:17:34;;;;;;;;;;;;;;;;;;;;;
2023/07/23 08:23:34;;;;;;;;;;;23.80;77.20;;;;;;7396506;19;19923;-76
2023/07/23 08:26:18;;;;;;;;;;;23.90;77.20;;;;;;7438424;19;20243;-76
2023/07/23 08:29:05;;;;;;;;;;;23.90;77.30;;;;;;7417509;19;19910;-76
2023/07/23 08:31:46;;;;;;;;;;;24.10;77.00;;;;;;7415241;19;19987;-76
2023/07/23 08:34:39;;;;;;;;;;;23.90;77.00;;;;;;7415015;19;19911;-75
2023/07/23 08:37:15;;;;;;;;;;;23.90;77.20;;;;;;7414843;19;19915;-77
2023/07/23 08:39:53;;;;;;;;;;;24.00;77.10;;;;;;7412612;19;19926;-77
2023/07/23 08:42:40;;;;;;;;;;;23.70;77.40;;;;;;7414130;19;20222;-76
2023/07/23 08:45:38;;;;;;;;;;;;;;;;;;;;;
2023/07/23 08:48:26;;;;;;;;;;;23.90;77.50;;;;;;7435573;19;19915;-76
2023/07/23 08:51:12;;;;;;;;;;;23.80;77.80;;;;;;7411414;19;19907;-77
2023/07/23 08:56:54;;;;;;;;;;;23.90;78.00;;;;;;7409493;19;19934;-76
2023/07/23 08:59:37;;;;;;;;;;;23.80;77.70;;;;;;7410213;19;19907;-76
2023/07/23 09:02:10;;;;;;;;;;;24.00;78.00;;;;;;7435431;19;19926;-76
2023/07/23 09:04:47;;;;;;;;;;;23.70;78.00;;;;;;7414062;19;20184;-75
2023/07/23 09:07:18;;;;;;;;;;;23.60;78.20;;;;;;7413701;19;19914;-75
2023/07/23 09:09:49;;;;;;;;;;;23.70;78.80;;;;;;7409744;19;19915;-77
2023/07/23 09:12:17;;;;;;;;;;;23.90;78.30;;;;;;7385716;19;19938;-76
2023/07/23 09:14:46;;;;;;;;;;;23.70;78.70;;;;;;7384087;19;19923;-76
2023/07/23 09:17:18;;;;;;;;;;;23.70;78.60;;;;;;7390359;19;19935;-76
2023/07/23 09:20:02;;;;;;;;;;;23.80;78.30;;;;;;7402524;19;19909;-77
2023/07/23 09:22:45;;;;;;;;;;;24.00;79.40;;;;;;7383675;19;19929;-75
2023/07/23 09:25:46;;;;;;;;;;;23.80;79.70;;;;;;7384722;19;19911;-75
2023/07/23 09:28:44;;;;;;;;;;;23.70;79.10;;;;;;7383557;19;19915;-77
2023/07/23 09:31:32;;;;;;;;;;;24.00;78.80;;;;;;7383635;19;19906;-76
2023/07/23 09:37:37;;;;;;;;;;;;;;;;;;;;;
2023/07/23 09:53:53;;;;;;;;;;;24.10;78.10;;;;;;7441573;19;19954;-76
2023/07/23 09:56:22;;;;;;;;;;;23.80;82.10;;;;;;7432265;19;19950;-75
2023/07/23 09:58:52;;;;;;;;;;;23.70;83.00;;;;;;7455351;19;19911;-74
2023/07/23 10:01:21;;;;;;;;;;;23.90;83.30;;;;;;7416869;19;19911;-75
2023/07/23 10:18:46;;;;;;;;;;;24.30;83.60;;;;;;7415178;19;19907;-75
2023/07/23 10:21:44;;;;;;;;;;;24.10;84.40;;;;;;7414037;19;19911;-77
2023/07/23 10:24:17;;;;;;;;;;;23.90;85.10;;;;;;7417149;19;19911;-76
2023/07/23 10:26:48;;;;;;;;;;;24.00;85.70;;;;;;7437399;19;19928;-75
2023/07/23 11:17:29;;;;;;;;;;;23.70;90.40;;;;;;7414444;19;19978;-77
2023/07/23 18:40:50;;;;;;;;;;;25.90;72.10;;;;;;7376959;19;19915;-77
2023/07/23 18:43:22;;;;;;;;;;;25.90;72.50;;;;;;7401144;19;19941;-74
2023/07/23 18:45:50;;;;;;;;;;;26.10;72.10;;;;;;7380461;19;19918;-76
2023/07/23 18:48:19;;;;;;;;;;;26.20;71.80;;;;;;7379694;19;19911;-75
2023/07/23 18:50:58;;;;;;;;;;;26.00;71.90;;;;;;7380116;19;19952;-78
2023/07/23 18:56:12;;;;;;;;;;;25.90;71.70;;;;;;7378326;19;19919;-76
2023/07/23 18:58:56;;;;;;;;;;;26.00;71.80;;;;;;7378592;19;19915;-76
2023/07/23 19:04:26;;;;;;;;;;;25.90;72.10;;;;;;7378625;19;19907;-76
2023/07/23 19:07:03;;;;;;;;;;;26.00;72.00;;;;;;7378503;19;20179;-76
2023/07/23 19:09:46;;;;;;;;;;;;;;;;;;;;;
2023/07/23 19:12:15;;;;;;;;;;;26.10;71.90;;;;;;7379038;19;19907;-77
2023/07/23 19:15:04;;;;;;;;;;;26.00;71.90;;;;;;7377625;19;19918;-77
2023/07/23 19:17:34;;;;;;;;;;;26.00;72.10;;;;;;7377699;19;20115;-76
2023/07/23 19:20:03;;;;;;;;;;;25.90;72.30;;;;;;7380231;19;20295;-76
2023/07/23 19:22:51;;;;;;;;;;;25.80;72.20;;;;;;7397536;19;19929;-76
2023/07/23 19:25:22;;;;;;;;;;;25.70;72.50;;;;;;7402879;19;20271;-76
2023/07/23 19:28:12;;;;;;;;;;;;;;;;;;;;;
2023/07/23 19:30:50;;;;;;;;;;;25.70;72.80;;;;;;7379662;19;19911;-76
2023/07/23 19:33:24;;;;;;;;;;;25.60;72.90;;;;;;7379080;19;19919;-77
2023/07/23 19:35:56;;;;;;;;;;;25.50;72.90;;;;;;7380118;19;19999;-76
2023/07/23 19:38:30;;;;;;;;;;;25.40;73.30;;;;;;7378740;19;19931;-77
2023/07/23 19:41:22;;;;;;;;;;;25.30;73.50;;;;;;7378752;19;19914;-77
2023/07/23 19:44:01;;;;;;;;;;;25.40;73.60;;;;;;7377779;19;20212;-75
2023/07/23 19:46:47;;;;;;;;;;;25.30;73.80;;;;;;7399894;19;19907;-76
2023/07/23 19:55:38;;;;;;;;;;;;;;;;;;;;;
2023/07/23 20:04:23;;;;;;;;;;;25.20;74.00;;;;;;7377299;19;20248;-77
2023/07/23 20:07:03;;;;;;;;;;;25.20;74.80;;;;;;7403321;19;19910;-76
2023/07/23 20:09:43;;;;;;;;;;;25.20;73.80;;;;;;7377561;19;19911;-77
2023/07/23 20:12:37;;;;;;;;;;;25.20;73.90;;;;;;7377812;19;20052;-77
2023/07/23 20:15:08;;;;;;;;;;;25.20;74.00;;;;;;7380924;19;19914;-76
2023/07/23 20:24:48;;;;;;;;;;;;;;;;;;;;;
2023/07/23 20:41:09;;;;;;;;;;;25.20;73.80;;;;;;6216503;19;17677270;-76
2023/07/23 20:44:07;;;;;;;;;;;25.10;73.50;;;;;;7413191;19;20221;-77
2023/07/23 20:47:10;;;;;;;;;;;;;;;;;;;;;
2023/07/23 20:53:08;;;;;;;;;;;25.10;73.50;;;;;;7438291;19;19922;-76
2023/07/23 20:56:15;;;;;;;;;;;25.20;73.40;;;;;;7316516;19;2004428;-76
2023/07/23 21:18:38;;;;;;;;;;;25.20;72.70;;;;;;7414946;19;19915;-74
2023/07/23 21:21:13;;;;;;;;;;;25.10;73.40;;;;;;7416012;19;19995;-78
2023/07/23 21:23:42;;;;;;;;;;;25.10;72.80;;;;;;7417538;19;20232;-76
2023/07/23 21:26:11;;;;;;;;;;;25.10;72.60;;;;;;7420675;19;19914;-75
2023/07/23 21:29:14;;;;;;;;;;;25.10;72.50;;;;;;7414338;19;19919;-76
2023/07/23 21:31:43;;;;;;;;;;;25.10;73.10;;;;;;7414671;19;19915;-76
2023/07/23 21:34:14;;;;;;;;;;;25.00;73.00;;;;;;7434594;19;19919;-76
2023/07/23 21:36:47;;;;;;;;;;;25.00;73.60;;;;;;7415261;19;19910;-76
2023/07/23 21:45:39;;;;;;;;;;;24.90;73.90;;;;;;7413304;19;19930;-76
2023/07/23 21:48:12;;;;;;;;;;;24.90;73.70;;;;;;7412620;19;19910;-75
2023/07/23 21:51:09;;;;;;;;;;;24.90;74.10;;;;;;7413324;19;19912;-76
2023/07/23 21:53:43;;;;;;;;;;;24.90;73.60;;;;;;7414290;19;20219;-76
2023/07/23 21:56:23;;;;;;;;;;;24.90;73.70;;;;;;7413408;19;19909;-76
2023/07/23 21:59:06;;;;;;;;;;;;;;;;;;;;;
2023/07/23 22:04:18;;;;;;;;;;;24.80;73.60;;;;;;7432703;19;19970;-76
2023/07/23 22:07:22;;;;;;;;;;;;;;;;;;;;;
2023/07/23 22:15:49;;;;;;;;;;;24.80;74.50;;;;;;7413024;19;19946;-76
2023/07/23 22:18:19;;;;;;;;;;;24.70;73.50;;;;;;7386059;19;19911;-77
2023/07/23 22:50:49;;;;;;;;;;;24.50;74.50;;;;;;7416092;19;20270;-77
2023/07/23 22:53:18;;;;;;;;;;;23.60;79.40;;;;;;7415823;19;19918;-77
2023/07/23 22:55:47;;;;;;;;;;;23.70;79.50;;;;;;7414333;19;20237;-77
2023/07/23 22:58:20;;;;;;;;;;;23.70;79.50;;;;;;7435174;19;19911;-76
2023/07/23 23:01:03;;;;;;;;;;;23.60;80.00;;;;;;7415646;19;20160;-77
2023/07/23 23:03:31;;;;;;;;;;;23.50;80.80;;;;;;7415441;19;19914;-77
2023/07/23 23:06:10;;;;;;;;;;;23.40;81.30;;;;;;7414526;19;19907;-77
2023/07/23 23:08:45;;;;;;;;;;;23.20;82.30;;;;;;7414800;19;19907;-76
2023/07/23 23:11:16;;;;;;;;;;;23.20;82.50;;;;;;7414695;19;19990;-76
2023/07/23 23:14:07;;;;;;;;;;;23.40;82.30;;;;;;7413754;19;20229;-76
2023/07/23 23:16:37;;;;;;;;;;;23.40;82.60;;;;;;7417921;19;19911;-76
2023/07/23 23:19:19;;;;;;;;;;;23.40;82.50;;;;;;7435229;19;19910;-77
2023/07/23 23:22:06;;;;;;;;;;;23.50;82.70;;;;;;7419835;19;20170;-77
2023/07/23 23:24:40;;;;;;;;;;;23.40;82.90;;;;;;7418296;19;19910;-77
2023/07/23 23:27:15;;;;;;;;;;;23.30;83.00;;;;;;7418176;19;19902;-77
2023/07/23 23:29:52;;;;;;;;;;;23.40;84.20;;;;;;7414384;19;19906;-77
2023/07/23 23:32:30;;;;;;;;;;;23.20;83.80;;;;;;7413019;19;19911;-76
2023/07/23 23:35:09;;;;;;;;;;;23.40;83.70;;;;;;7414637;19;19928;-76
2023/07/23 23:37:46;;;;;;;;;;;23.20;83.80;;;;;;7415269;19;19935;-75
2023/07/23 23:40:25;;;;;;;;;;;23.30;84.10;;;;;;7437844;19;20002;-76
2023/07/23 23:43:02;;;;;;;;;;;23.30;83.90;;;;;;7418181;19;19922;-76
2023/07/23 23:45:56;;;;;;;;;;;23.20;84.40;;;;;;7415569;19;20131;-77
2023/07/23 23:48:29;;;;;;;;;;;23.20;84.60;;;;;;7414517;19;19962;-76
2023/07/23 23:51:03;;;;;;;;;;;23.20;84.50;;;;;;7396060;19;19936;-76
2023/07/23 23:53:42;;;;;;;;;;;23.30;84.20;;;;;;7384714;19;20163;-76
2023/07/23 23:56:16;;;;;;;;;;;23.40;83.90;;;;;;7384365;19;20150;-77
2023/07/23 23:58:45;;;;;;;;;;;23.30;83.90;;;;;;7384713;19;19907;-77
